createdAt,value
2023-01-23T00:00:00.377Z,0.00
2023-01-23T00:00:59.489Z,0.00
2023-01-23T00:01:59.510Z,0.00
2023-01-23T00:02:59.466Z,0.00
2023-01-23T00:03:59.511Z,0.00
2023-01-23T00:04:59.439Z,0.00
2023-01-23T00:05:59.558Z,0.00
2023-01-23T00:07:00.377Z,0.00
2023-01-23T00:08:00.945Z,0.00
2023-01-23T00:08:59.419Z,0.00
2023-01-23T00:09:59.395Z,0.00
2023-01-23T00:10:59.376Z,0.00
2023-01-23T00:11:59.374Z,0.00
2023-01-23T00:12:59.872Z,0.00
2023-01-23T00:13:59.404Z,0.00
2023-01-23T00:15:01.870Z,0.00
2023-01-23T00:15:59.396Z,0.00
2023-01-23T00:16:59.883Z,0.00
2023-01-23T00:17:59.308Z,0.00
2023-01-23T00:18:59.311Z,0.00
2023-01-23T00:19:59.286Z,0.00
2023-01-23T00:20:59.325Z,0.00
2023-01-23T00:21:59.380Z,0.00
2023-01-23T00:22:59.262Z,0.00
2023-01-23T00:24:01.897Z,0.00
2023-01-23T00:24:59.233Z,0.00
2023-01-23T00:26:01.878Z,0.00
2023-01-23T00:26:59.231Z,0.00
2023-01-23T00:27:59.405Z,0.00
2023-01-23T00:28:59.870Z,0.00
2023-01-23T00:29:59.177Z,0.00
2023-01-23T00:31:00.025Z,0.00
2023-01-23T00:31:59.256Z,0.00
2023-01-23T00:32:59.145Z,0.00
2023-01-23T00:33:59.150Z,0.00
2023-01-23T00:34:59.115Z,0.00
2023-01-23T00:35:59.133Z,0.00
2023-01-23T00:36:59.129Z,0.00
2023-01-23T00:37:59.263Z,0.00
2023-01-23T00:38:59.083Z,0.00
2023-01-23T00:39:59.074Z,0.00
2023-01-23T00:40:59.050Z,0.00
2023-01-23T00:41:59.062Z,0.00
2023-01-23T00:42:59.030Z,0.00
2023-01-23T00:43:59.049Z,0.00
2023-01-23T00:44:59.024Z,0.00
2023-01-23T00:46:05.887Z,0.00
2023-01-23T00:46:58.992Z,0.00
2023-01-23T00:47:59.001Z,0.00
2023-01-23T00:48:58.961Z,0.00
2023-01-23T00:49:58.970Z,0.00
2023-01-23T00:50:59.949Z,0.00
2023-01-23T00:51:58.980Z,0.00
2023-01-23T00:52:58.919Z,0.00
2023-01-23T00:53:59.041Z,0.00
2023-01-23T00:54:58.895Z,0.00
2023-01-23T00:55:58.911Z,0.00
2023-01-23T00:56:58.878Z,0.00
2023-01-23T00:57:59.376Z,0.00
2023-01-23T00:58:58.881Z,0.00
2023-01-23T00:59:58.851Z,0.00
2023-01-23T01:00:59.363Z,0.00
2023-01-23T01:01:59.055Z,0.00
2023-01-23T01:02:58.954Z,0.00
2023-01-23T01:03:58.807Z,0.00
2023-01-23T01:04:58.800Z,0.00
2023-01-23T01:05:58.782Z,0.00
2023-01-23T01:06:58.768Z,0.00
2023-01-23T01:07:59.382Z,0.00
2023-01-23T01:08:58.744Z,0.00
2023-01-23T01:09:59.494Z,0.00
2023-01-23T01:10:58.743Z,0.00
2023-01-23T01:11:58.720Z,0.00
2023-01-23T01:12:58.703Z,0.00
2023-01-23T01:13:58.902Z,0.00
2023-01-23T01:14:58.685Z,0.00
2023-01-23T01:15:58.735Z,0.00
2023-01-23T01:16:58.687Z,0.00
2023-01-23T01:17:59.377Z,0.00
2023-01-23T01:18:58.648Z,0.00
2023-01-23T01:19:58.647Z,0.00
2023-01-23T01:20:59.372Z,0.00
2023-01-23T01:21:58.612Z,0.00
2023-01-23T01:22:58.604Z,0.00
2023-01-23T01:23:58.592Z,0.00
2023-01-23T01:24:58.568Z,0.00
2023-01-23T01:25:58.610Z,0.00
2023-01-23T01:26:58.547Z,0.00
2023-01-23T01:27:58.558Z,0.00
2023-01-23T01:28:59.367Z,0.00
2023-01-23T01:29:58.520Z,0.00
2023-01-23T01:30:58.715Z,0.00
2023-01-23T01:31:58.521Z,0.00
2023-01-23T01:32:58.497Z,0.00
2023-01-23T01:33:58.489Z,0.00
2023-01-23T01:34:58.484Z,0.00
2023-01-23T01:35:58.456Z,0.00
2023-01-23T01:36:58.459Z,0.00
2023-01-23T01:37:58.439Z,0.00
2023-01-23T01:38:58.441Z,0.00
2023-01-23T01:39:58.410Z,0.00
2023-01-23T01:40:58.397Z,0.00
2023-01-23T01:41:58.495Z,0.00
2023-01-23T01:42:58.399Z,0.00
2023-01-23T01:43:58.365Z,0.00
2023-01-23T01:44:58.356Z,0.00
2023-01-23T01:45:58.345Z,0.00
2023-01-23T01:46:58.331Z,0.00
2023-01-23T01:47:58.864Z,0.00
2023-01-23T01:48:58.331Z,0.00
2023-01-23T01:49:58.323Z,0.00
2023-01-23T01:51:00.924Z,0.00
2023-01-23T01:51:58.299Z,0.00
2023-01-23T01:53:00.873Z,0.00
2023-01-23T01:53:58.257Z,0.00
2023-01-23T01:54:58.260Z,0.00
2023-01-23T01:55:58.245Z,0.00
2023-01-23T01:56:58.247Z,0.00
2023-01-23T01:58:00.974Z,0.00
2023-01-23T01:58:59.256Z,0.00
2023-01-23T01:59:58.213Z,0.00
2023-01-23T02:00:58.213Z,0.00
2023-01-23T02:01:58.218Z,0.00
2023-01-23T02:02:58.970Z,0.00
2023-01-23T02:03:58.149Z,0.00
2023-01-23T02:04:58.127Z,0.00
2023-01-23T02:05:58.153Z,0.00
2023-01-23T02:06:58.105Z,0.00
2023-01-23T02:07:58.106Z,0.00
2023-01-23T02:08:58.096Z,0.00
2023-01-23T02:09:58.101Z,0.00
2023-01-23T02:10:58.066Z,0.00
2023-01-23T02:11:58.087Z,0.00
2023-01-23T02:12:58.862Z,0.00
2023-01-23T02:13:58.154Z,0.00
2023-01-23T02:14:58.031Z,0.00
2023-01-23T02:15:58.084Z,0.00
2023-01-23T02:16:58.000Z,0.00
2023-01-23T02:17:57.993Z,0.00
2023-01-23T02:18:57.998Z,0.00
2023-01-23T02:19:57.978Z,0.00
2023-01-23T02:20:59.884Z,0.00
2023-01-23T02:21:57.979Z,0.00
2023-01-23T02:22:57.929Z,0.00
2023-01-23T02:23:58.880Z,0.00
2023-01-23T02:25:00.865Z,0.00
2023-01-23T02:25:57.912Z,0.00
2023-01-23T02:26:57.887Z,0.00
2023-01-23T02:27:57.913Z,0.00
2023-01-23T02:29:00.970Z,0.00
2023-01-23T02:29:57.863Z,0.00
2023-01-23T02:30:57.961Z,0.00
2023-01-23T02:31:57.871Z,0.00
2023-01-23T02:32:57.834Z,0.00
2023-01-23T02:33:57.822Z,0.00
2023-01-23T02:35:04.365Z,0.00
2023-01-23T02:35:57.821Z,0.00
2023-01-23T02:36:57.809Z,0.00
2023-01-23T02:37:57.803Z,0.00
2023-01-23T02:38:57.782Z,0.00
2023-01-23T02:39:57.763Z,0.00
2023-01-23T02:40:58.369Z,0.00
2023-01-23T02:41:57.746Z,0.00
2023-01-23T02:42:57.723Z,0.00
2023-01-23T02:43:57.729Z,0.00
2023-01-23T02:44:58.467Z,0.00
2023-01-23T02:45:57.799Z,0.00
2023-01-23T02:46:57.684Z,0.00
2023-01-23T02:47:57.681Z,0.00
2023-01-23T02:48:57.658Z,0.00
2023-01-23T02:49:57.656Z,0.00
2023-01-23T02:50:57.655Z,0.00
2023-01-23T02:51:57.631Z,0.00
2023-01-23T02:52:57.608Z,0.00
2023-01-23T02:53:57.599Z,0.00
2023-01-23T02:54:57.636Z,0.00
2023-01-23T02:55:57.574Z,0.00
2023-01-23T02:57:18.586Z,0.00
2023-01-23T02:57:57.577Z,0.00
2023-01-23T02:58:57.533Z,0.00
2023-01-23T02:59:57.560Z,0.00
2023-01-23T03:00:58.500Z,0.00
2023-01-23T03:01:57.551Z,0.00
2023-01-23T03:02:57.496Z,0.00
2023-01-23T03:03:57.503Z,0.00
2023-01-23T03:04:57.476Z,0.00
2023-01-23T03:05:57.491Z,0.00
2023-01-23T03:06:58.356Z,0.00
2023-01-23T03:07:57.455Z,0.00
2023-01-23T03:08:57.439Z,0.00
2023-01-23T03:09:57.452Z,0.00
2023-01-23T03:10:57.409Z,0.00
2023-01-23T03:11:57.404Z,0.00
2023-01-23T03:12:57.385Z,0.00
2023-01-23T03:13:57.382Z,0.00
2023-01-23T03:14:57.371Z,0.00
2023-01-23T03:15:57.448Z,0.00
2023-01-23T03:16:57.969Z,0.00
2023-01-23T03:17:59.881Z,0.00
2023-01-23T03:18:57.342Z,0.00
2023-01-23T03:19:57.909Z,0.00
2023-01-23T03:20:57.324Z,0.00
2023-01-23T03:21:57.298Z,0.00
2023-01-23T03:22:57.285Z,0.00
2023-01-23T03:23:57.262Z,0.00
2023-01-23T03:24:57.265Z,0.00
2023-01-23T03:25:57.242Z,0.00
2023-01-23T03:26:57.263Z,0.00
2023-01-23T03:27:57.267Z,0.00
2023-01-23T03:28:57.217Z,0.00
2023-01-23T03:29:57.206Z,0.00
2023-01-23T03:30:57.217Z,0.00
2023-01-23T03:31:57.224Z,0.00
2023-01-23T03:32:57.295Z,0.00
2023-01-23T03:33:57.171Z,0.00
2023-01-23T03:34:57.866Z,0.00
2023-01-23T03:35:57.138Z,0.00
2023-01-23T03:36:57.124Z,0.00
2023-01-23T03:37:57.141Z,0.00
2023-01-23T03:38:57.127Z,0.00
2023-01-23T03:39:57.101Z,0.00
2023-01-23T03:40:57.096Z,0.00
2023-01-23T03:41:57.068Z,0.00
2023-01-23T03:42:57.063Z,0.00
2023-01-23T03:43:57.068Z,0.00
2023-01-23T03:44:57.037Z,0.00
2023-01-23T03:45:57.107Z,0.00
2023-01-23T03:46:57.015Z,0.00
2023-01-23T03:47:57.006Z,0.00
2023-01-23T03:48:57.127Z,0.00
2023-01-23T03:49:56.988Z,0.00
2023-01-23T03:50:57.951Z,0.00
2023-01-23T03:51:59.868Z,0.00
2023-01-23T03:52:56.950Z,0.00
2023-01-23T03:53:59.865Z,0.00
2023-01-23T03:54:56.949Z,0.00
2023-01-23T03:55:56.922Z,0.00
2023-01-23T03:56:56.900Z,0.00
2023-01-23T03:57:56.909Z,0.00
2023-01-23T03:58:56.925Z,0.00
2023-01-23T03:59:58.907Z,0.00
2023-01-23T04:01:03.471Z,0.00
2023-01-23T04:01:56.872Z,0.00
2023-01-23T04:02:57.931Z,0.00
2023-01-23T04:03:56.824Z,0.00
2023-01-23T04:04:56.929Z,0.00
2023-01-23T04:05:56.891Z,0.00
2023-01-23T04:06:56.800Z,0.00
2023-01-23T04:07:56.786Z,0.00
2023-01-23T04:08:56.780Z,0.00
2023-01-23T04:09:56.766Z,0.00
2023-01-23T04:10:56.787Z,0.00
2023-01-23T04:12:11.368Z,0.00
2023-01-23T04:12:56.723Z,0.00
2023-01-23T04:13:56.737Z,0.00
2023-01-23T04:14:56.713Z,0.00
2023-01-23T04:15:56.885Z,0.00
2023-01-23T04:16:56.694Z,0.00
2023-01-23T04:17:56.682Z,0.00
2023-01-23T04:18:56.659Z,0.00
2023-01-23T04:19:57.362Z,0.00
2023-01-23T04:20:57.002Z,0.00
2023-01-23T04:21:56.915Z,0.00
2023-01-23T04:22:56.642Z,0.00
2023-01-23T04:23:57.365Z,0.00
2023-01-23T04:24:56.601Z,0.00
2023-01-23T04:25:56.587Z,0.00
2023-01-23T04:26:59.866Z,0.00
2023-01-23T04:27:56.617Z,0.00
2023-01-23T04:28:56.558Z,0.00
2023-01-23T04:29:56.544Z,0.00
2023-01-23T04:30:56.585Z,0.00
2023-01-23T04:31:59.356Z,0.00
2023-01-23T04:32:56.543Z,0.00
2023-01-23T04:33:56.511Z,0.00
2023-01-23T04:34:56.487Z,0.00
2023-01-23T04:35:56.486Z,0.00
2023-01-23T04:36:56.573Z,0.00
2023-01-23T04:38:17.469Z,0.00
2023-01-23T04:38:56.476Z,0.00
2023-01-23T04:39:56.438Z,0.00
2023-01-23T04:40:56.434Z,0.00
2023-01-23T04:41:56.411Z,0.00
2023-01-23T04:42:56.410Z,0.00
2023-01-23T04:43:56.893Z,0.00
2023-01-23T04:44:56.378Z,0.00
2023-01-23T04:46:11.370Z,0.00
2023-01-23T04:46:56.356Z,0.00
2023-01-23T04:47:56.855Z,0.00
2023-01-23T04:48:56.349Z,0.00
2023-01-23T04:49:56.313Z,0.00
2023-01-23T04:50:56.347Z,0.00
2023-01-23T04:51:56.301Z,0.00
2023-01-23T04:52:56.971Z,0.00
2023-01-23T04:53:56.307Z,0.00
2023-01-23T04:54:56.263Z,0.00
2023-01-23T04:55:56.389Z,0.00
2023-01-23T04:56:56.861Z,0.00
2023-01-23T04:57:56.859Z,0.00
2023-01-23T04:58:56.228Z,0.00
2023-01-23T05:00:00.346Z,0.00
2023-01-23T05:00:56.218Z,0.00
2023-01-23T05:01:57.221Z,0.00
2023-01-23T05:02:56.191Z,0.00
2023-01-23T05:03:56.175Z,0.00
2023-01-23T05:04:56.151Z,0.00
2023-01-23T05:05:56.148Z,0.00
2023-01-23T05:06:56.172Z,0.00
2023-01-23T05:07:56.127Z,0.00
2023-01-23T05:08:56.223Z,0.00
2023-01-23T05:09:56.101Z,0.00
2023-01-23T05:10:56.115Z,0.00
2023-01-23T05:11:56.079Z,0.00
2023-01-23T05:12:56.067Z,0.00
2023-01-23T05:13:56.074Z,0.00
2023-01-23T05:14:56.044Z,0.00
2023-01-23T05:15:58.499Z,0.00
2023-01-23T05:16:56.038Z,0.00
2023-01-23T05:17:56.024Z,0.00
2023-01-23T05:18:56.001Z,0.00
2023-01-23T05:19:55.990Z,0.00
2023-01-23T05:20:55.977Z,0.00
2023-01-23T05:21:55.984Z,0.00
2023-01-23T05:22:58.335Z,0.00
2023-01-23T05:23:55.999Z,0.00
2023-01-23T05:24:56.057Z,0.00
2023-01-23T05:25:55.922Z,0.00
2023-01-23T05:26:56.397Z,0.00
2023-01-23T05:27:55.917Z,0.00
2023-01-23T05:28:55.909Z,0.00
2023-01-23T05:29:55.897Z,0.00
2023-01-23T05:30:55.947Z,0.00
2023-01-23T05:31:55.862Z,0.00
2023-01-23T05:32:55.846Z,0.00
2023-01-23T05:33:55.842Z,0.00
2023-01-23T05:34:55.851Z,0.00
2023-01-23T05:35:55.818Z,0.00
2023-01-23T05:36:55.808Z,0.00
2023-01-23T05:37:55.814Z,0.00
2023-01-23T05:38:55.783Z,0.00
2023-01-23T05:39:55.771Z,0.00
2023-01-23T05:40:55.869Z,0.00
2023-01-23T05:41:55.763Z,0.00
2023-01-23T05:42:55.745Z,0.00
2023-01-23T05:43:55.745Z,0.00
2023-01-23T05:44:55.713Z,0.00
2023-01-23T05:45:55.756Z,0.00
2023-01-23T05:46:55.701Z,0.00
2023-01-23T05:47:55.711Z,0.00
2023-01-23T05:48:55.700Z,0.00
2023-01-23T05:49:55.677Z,0.00
2023-01-23T05:50:55.665Z,0.00
2023-01-23T05:51:55.641Z,0.00
2023-01-23T05:52:55.634Z,0.00
2023-01-23T05:53:55.622Z,0.00
2023-01-23T05:54:55.636Z,0.00
2023-01-23T05:55:55.599Z,0.00
2023-01-23T05:56:55.696Z,0.00
2023-01-23T05:57:55.575Z,0.00
2023-01-23T05:58:55.561Z,0.00
2023-01-23T05:59:55.593Z,0.00
2023-01-23T06:00:55.544Z,0.00
2023-01-23T06:01:55.548Z,0.00
2023-01-23T06:02:55.624Z,0.00
2023-01-23T06:03:55.560Z,0.00
2023-01-23T06:04:55.898Z,0.00
2023-01-23T06:05:55.501Z,0.00
2023-01-23T06:06:55.471Z,0.00
2023-01-23T06:07:55.462Z,0.00
2023-01-23T06:08:55.457Z,0.00
2023-01-23T06:09:55.488Z,0.00
2023-01-23T06:10:55.426Z,0.00
2023-01-23T06:11:55.420Z,0.00
2023-01-23T06:12:55.524Z,0.00
2023-01-23T06:13:55.389Z,0.00
2023-01-23T06:14:55.392Z,0.00
2023-01-23T06:15:55.529Z,0.00
2023-01-23T06:16:55.395Z,0.00
2023-01-23T06:17:55.374Z,0.00
2023-01-23T06:18:55.341Z,0.00
2023-01-23T06:19:55.335Z,0.00
2023-01-23T06:20:55.328Z,0.00
2023-01-23T06:21:55.329Z,0.00
2023-01-23T06:22:55.304Z,0.00
2023-01-23T06:23:55.283Z,0.00
2023-01-23T06:24:55.291Z,0.00
2023-01-23T06:25:55.269Z,0.00
2023-01-23T06:26:55.258Z,0.00
2023-01-23T06:27:55.281Z,0.00
2023-01-23T06:28:55.356Z,0.00
2023-01-23T06:29:55.231Z,0.00
2023-01-23T06:30:55.316Z,0.00
2023-01-23T06:31:55.254Z,0.00
2023-01-23T06:32:55.210Z,0.00
2023-01-23T06:33:55.196Z,0.00
2023-01-23T06:34:55.191Z,0.00
2023-01-23T06:35:55.171Z,0.00
2023-01-23T06:36:55.148Z,0.00
2023-01-23T06:37:55.140Z,0.00
2023-01-23T06:38:55.139Z,0.00
2023-01-23T06:39:55.103Z,0.00
2023-01-23T06:40:56.120Z,0.00
2023-01-23T06:41:55.102Z,0.00
2023-01-23T06:42:55.080Z,0.00
2023-01-23T06:43:55.092Z,0.00
2023-01-23T06:44:55.167Z,0.00
2023-01-23T06:45:55.039Z,0.00
2023-01-23T06:46:55.040Z,0.00
2023-01-23T06:47:55.013Z,0.00
2023-01-23T06:48:55.038Z,0.00
2023-01-23T06:49:54.998Z,0.00
2023-01-23T06:50:55.039Z,0.00
2023-01-23T06:51:55.007Z,0.00
2023-01-23T06:52:54.980Z,0.00
2023-01-23T06:53:54.946Z,0.00
2023-01-23T06:54:54.942Z,0.00
2023-01-23T06:55:54.933Z,0.00
2023-01-23T06:56:54.926Z,0.00
2023-01-23T06:57:54.930Z,4.00
2023-01-23T06:58:54.905Z,0.00
2023-01-23T06:59:54.881Z,0.00
2023-01-23T07:00:54.987Z,4.00
2023-01-23T07:01:54.920Z,4.00
2023-01-23T07:02:54.931Z,4.00
2023-01-23T07:03:54.845Z,4.00
2023-01-23T07:04:54.833Z,4.00
2023-01-23T07:05:54.819Z,4.00
2023-01-23T07:06:54.833Z,4.00
2023-01-23T07:07:54.799Z,8.00
2023-01-23T07:08:54.795Z,8.00
2023-01-23T07:09:54.776Z,8.00
2023-01-23T07:10:54.790Z,8.00
2023-01-23T07:11:54.765Z,12.00
2023-01-23T07:12:54.766Z,12.00
2023-01-23T07:13:54.733Z,12.00
2023-01-23T07:14:55.753Z,16.00
2023-01-23T07:15:54.779Z,20.00
2023-01-23T07:16:54.836Z,24.00
2023-01-23T07:17:54.689Z,24.00
2023-01-23T07:18:54.693Z,28.00
2023-01-23T07:19:54.667Z,32.00
2023-01-23T07:20:54.708Z,32.00
2023-01-23T07:21:54.728Z,40.00
2023-01-23T07:22:54.647Z,40.00
2023-01-23T07:23:54.639Z,44.00
2023-01-23T07:24:54.620Z,52.00
2023-01-23T07:25:54.646Z,56.00
2023-01-23T07:26:54.589Z,60.00
2023-01-23T07:27:54.628Z,60.00
2023-01-23T07:28:54.559Z,60.00
2023-01-23T07:29:54.560Z,64.00
2023-01-23T07:30:54.620Z,68.00
2023-01-23T07:31:54.569Z,76.00
2023-01-23T07:32:54.631Z,80.00
2023-01-23T07:33:54.547Z,88.00
2023-01-23T07:34:54.497Z,96.00
2023-01-23T07:35:54.511Z,100.00
2023-01-23T07:36:54.471Z,104.00
2023-01-23T07:37:54.496Z,104.00
2023-01-23T07:38:54.450Z,120.00
2023-01-23T07:39:54.474Z,116.00
2023-01-23T07:40:54.433Z,132.00
2023-01-23T07:41:54.427Z,128.00
2023-01-23T07:42:54.412Z,128.00
2023-01-23T07:43:54.411Z,136.00
2023-01-23T07:44:54.399Z,152.00
2023-01-23T07:45:54.402Z,152.00
2023-01-23T07:46:56.463Z,168.00
2023-01-23T07:47:54.365Z,172.00
2023-01-23T07:48:54.462Z,168.00
2023-01-23T07:49:54.346Z,168.00
2023-01-23T07:50:54.404Z,168.00
2023-01-23T07:51:54.312Z,180.00
2023-01-23T07:52:56.770Z,172.00
2023-01-23T07:53:54.287Z,172.00
2023-01-23T07:54:54.282Z,184.00
2023-01-23T07:55:54.292Z,196.00
2023-01-23T07:56:54.269Z,184.00
2023-01-23T07:57:54.246Z,196.00
2023-01-23T07:58:57.238Z,188.00
2023-01-23T07:59:54.224Z,172.00
2023-01-23T08:00:54.295Z,180.00
2023-01-23T08:01:54.226Z,184.00
2023-01-23T08:02:54.208Z,180.00
2023-01-23T08:03:54.280Z,188.00
2023-01-23T08:04:54.290Z,184.00
2023-01-23T08:05:54.187Z,196.00
2023-01-23T08:06:54.182Z,220.00
2023-01-23T08:08:11.333Z,208.00
2023-01-23T08:08:55.125Z,204.00
2023-01-23T08:09:54.120Z,204.00
2023-01-23T08:10:54.111Z,228.00
2023-01-23T08:11:54.096Z,232.00
2023-01-23T08:12:54.146Z,264.00
2023-01-23T08:13:54.083Z,252.00
2023-01-23T08:14:54.062Z,252.00
2023-01-23T08:15:54.092Z,276.00
2023-01-23T08:16:54.058Z,264.00
2023-01-23T08:17:54.062Z,252.00
2023-01-23T08:18:54.013Z,236.00
2023-01-23T08:19:55.069Z,252.00
2023-01-23T08:20:54.099Z,260.00
2023-01-23T08:21:53.994Z,252.00
2023-01-23T08:22:53.980Z,248.00
2023-01-23T08:23:53.994Z,292.00
2023-01-23T08:24:53.970Z,320.00
2023-01-23T08:25:53.939Z,392.00
2023-01-23T08:26:53.926Z,380.00
2023-01-23T08:27:53.932Z,380.00
2023-01-23T08:28:53.932Z,408.00
2023-01-23T08:29:53.926Z,408.00
2023-01-23T08:30:53.897Z,408.00
2023-01-23T08:31:53.933Z,408.00
2023-01-23T08:32:53.866Z,348.00
2023-01-23T08:33:53.862Z,364.00
2023-01-23T08:34:53.835Z,348.00
2023-01-23T08:35:53.879Z,340.00
2023-01-23T08:36:53.950Z,308.00
2023-01-23T08:37:53.812Z,312.00
2023-01-23T08:38:53.801Z,300.00
2023-01-23T08:39:53.832Z,308.00
2023-01-23T08:40:53.794Z,304.00
2023-01-23T08:41:53.819Z,324.00
2023-01-23T08:42:54.504Z,324.00
2023-01-23T08:43:53.744Z,304.00
2023-01-23T08:44:53.728Z,292.00
2023-01-23T08:45:53.769Z,292.00
2023-01-23T08:46:53.735Z,304.00
2023-01-23T08:47:53.708Z,308.00
2023-01-23T08:48:53.698Z,316.00
2023-01-23T08:49:53.689Z,332.00
2023-01-23T08:50:53.699Z,356.00
2023-01-23T08:51:53.730Z,388.00
2023-01-23T08:52:53.757Z,476.00
2023-01-23T08:53:53.648Z,484.00
2023-01-23T08:54:53.621Z,496.00
2023-01-23T08:55:53.640Z,492.00
2023-01-23T08:56:53.599Z,484.00
2023-01-23T08:57:53.598Z,528.00
2023-01-23T08:58:53.593Z,584.00
2023-01-23T08:59:53.572Z,588.00
2023-01-23T09:00:53.674Z,644.00
2023-01-23T09:01:53.634Z,708.00
2023-01-23T09:02:53.540Z,676.00
2023-01-23T09:03:53.537Z,672.00
2023-01-23T09:04:53.507Z,692.00
2023-01-23T09:05:53.519Z,724.00
2023-01-23T09:06:53.491Z,732.00
2023-01-23T09:07:53.474Z,728.00
2023-01-23T09:08:53.493Z,728.00
2023-01-23T09:09:53.455Z,696.00
2023-01-23T09:10:53.477Z,728.00
2023-01-23T09:11:53.432Z,748.00
2023-01-23T09:12:53.426Z,748.00
2023-01-23T09:13:54.132Z,832.00
2023-01-23T09:14:53.410Z,1012.00
2023-01-23T09:15:53.391Z,1012.00
2023-01-23T09:16:53.452Z,1056.00
2023-01-23T09:17:53.375Z,1048.00
2023-01-23T09:18:53.381Z,1024.00
2023-01-23T09:19:53.347Z,1048.00
2023-01-23T09:20:53.356Z,1100.00
2023-01-23T09:21:54.432Z,1192.00
2023-01-23T09:22:53.308Z,1212.00
2023-01-23T09:23:53.321Z,1188.00
2023-01-23T09:24:53.415Z,1136.00
2023-01-23T09:25:53.288Z,1152.00
2023-01-23T09:26:53.287Z,1236.00
2023-01-23T09:27:53.276Z,1268.00
2023-01-23T09:28:53.245Z,1292.00
2023-01-23T09:29:53.247Z,1356.00
2023-01-23T09:30:53.232Z,1452.00
2023-01-23T09:31:53.299Z,1620.00
2023-01-23T09:32:53.209Z,1860.00
2023-01-23T09:33:53.214Z,1896.00
2023-01-23T09:34:53.185Z,1940.00
2023-01-23T09:35:53.195Z,1936.00
2023-01-23T09:36:53.188Z,2036.00
2023-01-23T09:37:58.531Z,1924.00
2023-01-23T09:38:54.142Z,1828.00
2023-01-23T09:39:53.154Z,1808.00
2023-01-23T09:40:53.262Z,1664.00
2023-01-23T09:41:53.109Z,1740.00
2023-01-23T09:42:53.122Z,1908.00
2023-01-23T09:43:53.089Z,1948.00
2023-01-23T09:44:53.079Z,1912.00
2023-01-23T09:45:53.131Z,2012.00
2023-01-23T09:46:53.063Z,2032.00
2023-01-23T09:47:53.436Z,2088.00
2023-01-23T09:48:53.055Z,2104.00
2023-01-23T09:49:53.039Z,2108.00
2023-01-23T09:50:53.024Z,1968.00
2023-01-23T09:51:53.020Z,2016.00
2023-01-23T09:52:53.004Z,1816.00
2023-01-23T09:53:52.982Z,2264.00
2023-01-23T09:54:52.978Z,1816.00
2023-01-23T09:55:52.964Z,1728.00
2023-01-23T09:56:53.052Z,1696.00
2023-01-23T09:57:52.953Z,1632.00
2023-01-23T09:58:52.921Z,1652.00
2023-01-23T10:00:00.451Z,1636.00
2023-01-23T10:00:53.915Z,1728.00
2023-01-23T10:01:52.905Z,1780.00
2023-01-23T10:02:52.885Z,1776.00
2023-01-23T10:03:52.883Z,1796.00
2023-01-23T10:04:52.859Z,1864.00
2023-01-23T10:05:52.878Z,1932.00
2023-01-23T10:06:52.834Z,2020.00
2023-01-23T10:07:52.857Z,2000.00
2023-01-23T10:08:53.876Z,2016.00
2023-01-23T10:09:52.808Z,2084.00
2023-01-23T10:10:52.810Z,2128.00
2023-01-23T10:11:52.784Z,2152.00
2023-01-23T10:12:52.931Z,2160.00
2023-01-23T10:13:52.767Z,2236.00
2023-01-23T10:14:52.754Z,2264.00
2023-01-23T10:15:53.757Z,2292.00
2023-01-23T10:16:52.801Z,2280.00
2023-01-23T10:17:52.742Z,2288.00
2023-01-23T10:18:52.702Z,2328.00
2023-01-23T10:19:52.692Z,2272.00
2023-01-23T10:20:52.687Z,2228.00
2023-01-23T10:21:52.684Z,2148.00
2023-01-23T10:22:52.668Z,2132.00
2023-01-23T10:23:52.674Z,2236.00
2023-01-23T10:24:52.640Z,2228.00
2023-01-23T10:25:52.629Z,2216.00
2023-01-23T10:26:52.639Z,2120.00
2023-01-23T10:27:52.629Z,2096.00
2023-01-23T10:28:54.773Z,2124.00
2023-01-23T10:29:52.586Z,2140.00
2023-01-23T10:30:52.692Z,2176.00
2023-01-23T10:31:52.648Z,2148.00
2023-01-23T10:32:52.579Z,2152.00
2023-01-23T10:33:52.572Z,2196.00
2023-01-23T10:34:53.567Z,2204.00
2023-01-23T10:35:52.518Z,2156.00
2023-01-23T10:36:55.017Z,2140.00
2023-01-23T10:37:52.498Z,2060.00
2023-01-23T10:38:52.522Z,2008.00
2023-01-23T10:39:52.479Z,1948.00
2023-01-23T10:40:52.464Z,1880.00
2023-01-23T10:42:01.428Z,1856.00
2023-01-23T10:42:53.443Z,1892.00
2023-01-23T10:43:52.437Z,1860.00
2023-01-23T10:44:52.570Z,1836.00
2023-01-23T10:45:52.473Z,1860.00
2023-01-23T10:46:54.006Z,1916.00
2023-01-23T10:47:55.110Z,2052.00
2023-01-23T10:48:52.389Z,2060.00
2023-01-23T10:49:52.393Z,2080.00
2023-01-23T10:50:52.429Z,2140.00
2023-01-23T10:51:52.357Z,2240.00
2023-01-23T10:52:52.340Z,2248.00
2023-01-23T10:53:52.323Z,2264.00
2023-01-23T10:54:52.340Z,2284.00
2023-01-23T10:55:52.306Z,2240.00
2023-01-23T10:56:52.295Z,2184.00
2023-01-23T10:57:52.289Z,1972.00
2023-01-23T10:58:52.268Z,1968.00
2023-01-23T10:59:52.292Z,1764.00
2023-01-23T11:00:52.388Z,1688.00
2023-01-23T11:01:57.416Z,1664.00
2023-01-23T11:02:53.274Z,1664.00
2023-01-23T11:03:52.213Z,1680.00
2023-01-23T11:04:52.213Z,1720.00
2023-01-23T11:05:53.379Z,1904.00
2023-01-23T11:06:52.189Z,1892.00
2023-01-23T11:07:52.190Z,1848.00
2023-01-23T11:08:52.170Z,1868.00
2023-01-23T11:09:52.153Z,1972.00
2023-01-23T11:10:52.173Z,2248.00
2023-01-23T11:11:52.133Z,1996.00
2023-01-23T11:12:52.146Z,2008.00
2023-01-23T11:13:52.121Z,2244.00
2023-01-23T11:14:52.105Z,2344.00
2023-01-23T11:15:52.160Z,1988.00
2023-01-23T11:16:52.103Z,1972.00
2023-01-23T11:17:52.060Z,1928.00
2023-01-23T11:18:52.061Z,2260.00
2023-01-23T11:19:52.072Z,2104.00
2023-01-23T11:20:52.056Z,2068.00
2023-01-23T11:21:52.055Z,2132.00
2023-01-23T11:22:52.019Z,2292.00
2023-01-23T11:23:52.027Z,2212.00
2023-01-23T11:24:52.031Z,2148.00
2023-01-23T11:25:52.009Z,2464.00
2023-01-23T11:26:51.963Z,2348.00
2023-01-23T11:27:51.978Z,2516.00
2023-01-23T11:28:51.957Z,2440.00
2023-01-23T11:29:51.938Z,2364.00
2023-01-23T11:31:00.852Z,2360.00
2023-01-23T11:31:52.997Z,2432.00
2023-01-23T11:32:52.047Z,2428.00
2023-01-23T11:33:51.890Z,2396.00
2023-01-23T11:34:58.870Z,2424.00
2023-01-23T11:35:51.873Z,2412.00
2023-01-23T11:36:52.842Z,2332.00
2023-01-23T11:37:51.879Z,2348.00
2023-01-23T11:38:53.085Z,2376.00
2023-01-23T11:39:51.832Z,2416.00
2023-01-23T11:40:51.812Z,2436.00
2023-01-23T11:41:51.830Z,2404.00
2023-01-23T11:42:51.799Z,2292.00
2023-01-23T11:43:51.800Z,2252.00
2023-01-23T11:44:51.825Z,2256.00
2023-01-23T11:45:54.383Z,2244.00
2023-01-23T11:46:51.768Z,2164.00
2023-01-23T11:47:51.767Z,2104.00
2023-01-23T11:48:58.459Z,2028.00
2023-01-23T11:49:51.744Z,2104.00
2023-01-23T11:50:57.124Z,2228.00
2023-01-23T11:51:55.339Z,2224.00
2023-01-23T11:52:51.698Z,2176.00
2023-01-23T11:53:51.691Z,2156.00
2023-01-23T11:54:51.696Z,2160.00
2023-01-23T11:55:58.345Z,2020.00
2023-01-23T11:56:52.813Z,1980.00
2023-01-23T11:57:52.367Z,2028.00
2023-01-23T11:58:52.347Z,2016.00
2023-01-23T11:59:51.622Z,2056.00
2023-01-23T12:00:52.352Z,2132.00
2023-01-23T12:02:02.515Z,2092.00
2023-01-23T12:02:52.659Z,1988.00
2023-01-23T12:03:52.440Z,1904.00
2023-01-23T12:04:51.686Z,2048.00
2023-01-23T12:05:51.588Z,2156.00
2023-01-23T12:06:51.661Z,2212.00
2023-01-23T12:07:52.349Z,2232.00
2023-01-23T12:08:54.340Z,2220.00
2023-01-23T12:09:53.400Z,2172.00
2023-01-23T12:10:51.865Z,2264.00
2023-01-23T12:11:51.510Z,2296.00
2023-01-23T12:12:52.374Z,2324.00
2023-01-23T12:13:51.493Z,2504.00
2023-01-23T12:14:51.456Z,2448.00
2023-01-23T12:15:51.444Z,2408.00
2023-01-23T12:16:51.510Z,2452.00
2023-01-23T12:17:51.447Z,2376.00
2023-01-23T12:18:51.404Z,2268.00
2023-01-23T12:19:51.412Z,2216.00
2023-01-23T12:20:51.558Z,2208.00
2023-01-23T12:21:51.384Z,2256.00
2023-01-23T12:22:51.363Z,2272.00
2023-01-23T12:23:54.356Z,2268.00
2023-01-23T12:24:51.347Z,2148.00
2023-01-23T12:25:51.336Z,2132.00
2023-01-23T12:26:51.340Z,2016.00
2023-01-23T12:27:51.312Z,1920.00
2023-01-23T12:28:51.301Z,1820.00
2023-01-23T12:29:51.292Z,1788.00
2023-01-23T12:30:51.848Z,1636.00
2023-01-23T12:31:51.457Z,1540.00
2023-01-23T12:32:51.299Z,1684.00
2023-01-23T12:33:51.240Z,1752.00
2023-01-23T12:34:52.284Z,1620.00
2023-01-23T12:35:51.237Z,1588.00
2023-01-23T12:37:08.104Z,1636.00
2023-01-23T12:37:52.210Z,1720.00
2023-01-23T12:38:51.219Z,1640.00
2023-01-23T12:39:51.193Z,1580.00
2023-01-23T12:40:51.167Z,1608.00
2023-01-23T12:41:51.164Z,1656.00
2023-01-23T12:42:51.146Z,1732.00
2023-01-23T12:43:52.297Z,1740.00
2023-01-23T12:44:51.149Z,1716.00
2023-01-23T12:45:51.133Z,1720.00
2023-01-23T12:46:51.198Z,1712.00
2023-01-23T12:47:51.852Z,1696.00
2023-01-23T12:48:53.841Z,1744.00